Detall de PIREP

Printer-friendly versionPDF version

[2015/04/03 16:11:00]
Flight IATA:CT1004
Pilot Number:012
Company ICAO:CAT
Aircraft Type:B744/E
PAX:400
Departing Airport: LFMP
Destination Airport: LPFR
Alternate Airport:LEZL
Online: VATSIM
Route:BGR UQ47 ASTRO UM985 YES UN747 SVL UM744 ALAGU
Flight Level:F370
No Slew and time accel
No pause
Crash detect
Detect pilot in Cockpit between each 30 and 45 minutes
16:11 Zero fuel Weight: 491526 Lbs, Fuel Weight: 75904 Lbs
16:11 VATSIM:LFMP 031600Z AUTO 32010KT 290V350 9999 NSC 21/05 Q1015
16:11 VATSIM:LPFR 031600Z 14006KT CAVOK 18/12 Q1015
16:11 EASTER CHARTER
16:15 Parking Brakes off
16:20 Take-off
16:20 Take off Weight: 565876 Lbs
16:20 Wind: 317º @ 010 Knots Heading: 327º
16:20 POS N42º 44´ 51´´ E002º 52´ 01´´
16:20 Gear Up: 178 Knots
16:20 Flaps:3 at 178 Knots
16:21 Flaps:2 at 193 Knots
16:21 Flaps:1 at 203 Knots
16:22 Flaps:0 at 254 Knots
16:35 Wind:276º@054Knots Heading: 235º Ground Speed: 446 Knots Altitude 36217 ft
16:35 TOC
16:35 Fuel Weight: 62036 Lb
16:50 Wind:277º@047 Knots Heading: 233º Ground Speed: 452 Knots Altitude 37099 ft
17:05 Wind:269º@052 Knots Heading: 232º Ground Speed: 443 Knots Altitude 37053 ft
17:20 Wind:263º@051 Knots Heading: 258º Ground Speed: 432 Knots Altitude 37083 ft
17:35 Wind:269º@042 Knots Heading: 248º Ground Speed: 446 Knots Altitude 36994 ft
17:48 TOD
17:48 Fuel Weight: 37211 Lb
17:50 Wind:227º@037 Knots Heading: 294º Ground Speed: 430 Knots Altitude 32716 ft
18:01 Flaps:1 at 232 Knots
18:05 Wind:113º@009 Knots Heading: 203º Ground Speed: 248 Knots Altitude 4268 ft
18:06 Flaps:2 at 204 Knots
18:06 Flaps:3 at 203 Knots
18:06 Gear Down: 192 Knots
18:07 Flaps:4 at 181 Knots
18:07 Flaps:5 at 176 Knots
18:07 Flaps:6 at 150 Knots
18:11 TouchDown:Rate -490 ft/min Speed: 141 Knots
18:11 VATSIM:LPFR 031800Z 11004KT 080V140 CAVOK 19/13 Q1015
18:11 Land
18:11 Wind:118º@005 Knots
18:11 Heading: 280º
18:11 Flight Duration: 01:51
18:11 Landing Weight: 523835 Lbs
18:11 POS N37º 00´ 56´´ W007º 58´ 29´´
18:13 Parking brakes on
18:13 Block to Block Duration: 01:58
18:13 Final Fuel: 31847 Lbls
18:13 Spent Fuel: 44056 Lbls
18:13 Flight Length: 756 NM
18:13 TOD Land Length: 115 NM

Exportar CSV

Powered by Drupal - Modified by Danger4k